Time;durP1;ratioP1;P1;durP2;ratioP2;P2;SDS_P1;SDS_P2;PMS_P1;PMS_P2;Temp;Humidity;BMP_temperature;BMP_pressure;BME280_temperature;BME280_humidity;BME280_pressure;Samples;Min_cycle;Max_cycle;Signal;HPM_P1;HPM_P2
2023/06/21 00:01:38;;;;;;;;;;;25.70;59.10;;;;;;5070159;28;19935;-64
2023/06/21 00:04:04;;;;;;;;;;;25.60;59.00;;;;;;5070122;28;19920;-63
2023/06/21 00:06:30;;;;;;;;;;;25.70;59.90;;;;;;5071402;28;19920;-64
2023/06/21 00:08:56;;;;;;;;;;;25.60;59.10;;;;;;5072338;28;19921;-64
2023/06/21 00:11:21;;;;;;;;;;;25.70;59.10;;;;;;5073430;28;20470;-64
2023/06/21 00:13:47;;;;;;;;;;;25.60;59.10;;;;;;5073548;28;20008;-64
2023/06/21 00:16:14;;;;;;;;;;;25.60;59.20;;;;;;5073557;28;19924;-63
2023/06/21 00:18:39;;;;;;;;;;;25.60;59.10;;;;;;5073792;28;19927;-64
2023/06/21 00:21:05;;;;;;;;;;;25.60;59.20;;;;;;5073793;28;19924;-64
2023/06/21 00:23:33;;;;;;;;;;;25.60;59.20;;;;;;5073819;28;19920;-64
2023/06/21 00:25:59;;;;;;;;;;;25.60;59.20;;;;;;5073788;28;20228;-63
2023/06/21 00:28:24;;;;;;;;;;;25.60;59.20;;;;;;5073157;28;20042;-63
2023/06/21 00:30:50;;;;;;;;;;;25.60;59.10;;;;;;5074021;28;20370;-63
2023/06/21 00:33:16;;;;;;;;;;;25.60;59.20;;;;;;5073337;28;19952;-64
2023/06/21 00:35:42;;;;;;;;;;;25.60;59.20;;;;;;5073129;28;19924;-63
2023/06/21 00:38:07;;;;;;;;;;;25.50;59.00;;;;;;5073393;28;19926;-63
2023/06/21 00:40:33;;;;;;;;;;;25.50;59.10;;;;;;5074527;28;19977;-63
2023/06/21 00:42:58;;;;;;;;;;;25.50;59.20;;;;;;5074110;28;19974;-63
2023/06/21 00:45:24;;;;;;;;;;;25.50;59.20;;;;;;5072510;28;20359;-63
2023/06/21 00:47:49;;;;;;;;;;;25.50;59.10;;;;;;5073666;28;19978;-64
2023/06/21 00:50:15;;;;;;;;;;;25.50;59.10;;;;;;5072173;28;19927;-63
2023/06/21 00:52:43;;;;;;;;;;;25.50;59.00;;;;;;5072273;28;19927;-63
2023/06/21 00:55:09;;;;;;;;;;;25.50;59.80;;;;;;5073731;28;19927;-64
2023/06/21 00:57:35;;;;;;;;;;;25.50;59.10;;;;;;5106676;28;20360;-64
2023/06/21 01:00:01;;;;;;;;;;;25.50;59.10;;;;;;5072059;28;19932;-63
2023/06/21 01:02:26;;;;;;;;;;;25.50;59.10;;;;;;5072378;28;19925;-64
2023/06/21 01:04:52;;;;;;;;;;;25.50;59.10;;;;;;5072135;28;19947;-63
2023/06/21 01:07:37;;;;;;;;;;;25.50;59.20;;;;;;5072562;28;20280;-63
2023/06/21 01:10:23;;;;;;;;;;;25.40;59.10;;;;;;5105609;28;20137;-63
2023/06/21 01:13:09;;;;;;;;;;;25.50;59.10;;;;;;5072274;28;20298;-63
2023/06/21 01:15:39;;;;;;;;;;;25.50;59.10;;;;;;5072337;28;20070;-63
2023/06/21 01:18:05;;;;;;;;;;;25.50;59.20;;;;;;5073585;28;19920;-64
2023/06/21 01:20:33;;;;;;;;;;;25.50;59.30;;;;;;5073801;28;20200;-64
2023/06/21 01:31:15;;;;;;;;;;;25.40;59.10;;;;;;5109476;27;19912;-61
2023/06/21 01:33:41;;;;;;;;;;;25.40;59.10;;;;;;5109209;28;19967;-62
2023/06/21 01:36:08;;;;;;;;;;;25.40;59.20;;;;;;5108379;28;19927;-62
2023/06/21 01:38:33;;;;;;;;;;;25.40;59.20;;;;;;5108104;28;19927;-62
2023/06/21 01:40:59;;;;;;;;;;;25.30;59.20;;;;;;5108558;28;19919;-62
2023/06/21 01:43:25;;;;;;;;;;;25.30;59.10;;;;;;5108084;28;20088;-62
2023/06/21 01:45:51;;;;;;;;;;;25.30;58.90;;;;;;5108164;28;20327;-62
2023/06/21 01:48:17;;;;;;;;;;;25.30;59.00;;;;;;5108463;28;19933;-61
2023/06/21 01:50:43;;;;;;;;;;;25.30;59.20;;;;;;5107997;28;20488;-62
2023/06/21 01:53:10;;;;;;;;;;;25.30;59.10;;;;;;5108476;28;19943;-62
2023/06/21 01:55:36;;;;;;;;;;;25.30;59.20;;;;;;5108068;28;19955;-62
2023/06/21 01:58:03;;;;;;;;;;;25.30;59.00;;;;;;5108371;28;19924;-62
2023/06/21 02:00:28;;;;;;;;;;;25.20;59.10;;;;;;5108014;28;19926;-61
2023/06/21 02:02:55;;;;;;;;;;;25.30;59.20;;;;;;5108289;28;19919;-62
2023/06/21 02:05:21;;;;;;;;;;;25.30;59.00;;;;;;5109093;28;20040;-62
2023/06/21 02:07:47;;;;;;;;;;;25.30;59.10;;;;;;5109200;28;19967;-62
2023/06/21 02:10:15;;;;;;;;;;;25.30;59.20;;;;;;5108464;28;19931;-62
2023/06/21 02:12:41;;;;;;;;;;;25.30;59.20;;;;;;5107265;28;20007;-62
2023/06/21 02:15:07;;;;;;;;;;;25.30;59.20;;;;;;5108482;28;19943;-62
2023/06/21 02:17:33;;;;;;;;;;;25.20;59.20;;;;;;5107516;28;19920;-62
2023/06/21 02:19:58;;;;;;;;;;;25.20;59.10;;;;;;5107275;28;19994;-62
2023/06/21 02:22:24;;;;;;;;;;;25.20;59.10;;;;;;5107248;28;20011;-62
2023/06/21 02:24:49;;;;;;;;;;;25.20;59.20;;;;;;5108416;28;20022;-62
2023/06/21 02:27:15;;;;;;;;;;;25.20;59.20;;;;;;5108696;28;19971;-62
2023/06/21 02:29:40;;;;;;;;;;;25.20;59.10;;;;;;5106772;28;20421;-62
2023/06/21 02:32:06;;;;;;;;;;;25.20;59.10;;;;;;5107979;28;19970;-62
2023/06/21 02:34:31;;;;;;;;;;;25.20;59.20;;;;;;5106271;28;19931;-62
2023/06/21 02:36:57;;;;;;;;;;;25.20;59.20;;;;;;5106598;28;19923;-62
2023/06/21 02:39:24;;;;;;;;;;;25.20;59.20;;;;;;5106798;28;19971;-61
2023/06/21 02:41:51;;;;;;;;;;;25.20;59.20;;;;;;5097153;28;19970;-62
2023/06/21 02:44:17;;;;;;;;;;;25.20;59.30;;;;;;5093394;28;19978;-62
2023/06/21 02:46:42;;;;;;;;;;;25.20;59.30;;;;;;5093487;28;19960;-62
2023/06/21 02:49:08;;;;;;;;;;;25.20;59.20;;;;;;5094695;28;19977;-62
2023/06/21 02:51:33;;;;;;;;;;;25.20;59.30;;;;;;5092705;28;19927;-62
2023/06/21 02:53:59;;;;;;;;;;;25.10;59.20;;;;;;5092575;28;19924;-62
2023/06/21 02:56:24;;;;;;;;;;;25.10;59.20;;;;;;5092525;28;20279;-62
2023/06/21 02:58:50;;;;;;;;;;;25.10;59.10;;;;;;5092871;28;20173;-62
2023/06/21 03:01:16;;;;;;;;;;;25.10;59.10;;;;;;5093242;28;20073;-61
2023/06/21 03:03:43;;;;;;;;;;;25.10;59.10;;;;;;5093536;28;19931;-62
2023/06/21 03:06:08;;;;;;;;;;;25.10;59.20;;;;;;5094267;28;19932;-62
2023/06/21 03:08:36;;;;;;;;;;;25.10;59.10;;;;;;5094470;28;19986;-62
2023/06/21 03:11:02;;;;;;;;;;;25.10;59.10;;;;;;5094253;28;19928;-61
2023/06/21 03:13:27;;;;;;;;;;;25.00;59.20;;;;;;5092197;28;19969;-62
2023/06/21 03:15:53;;;;;;;;;;;25.10;59.10;;;;;;5093169;28;20283;-62
2023/06/21 03:18:19;;;;;;;;;;;25.00;59.10;;;;;;5094288;28;19920;-62
2023/06/21 03:20:46;;;;;;;;;;;25.10;59.10;;;;;;5093265;28;19920;-62
2023/06/21 03:23:12;;;;;;;;;;;25.10;59.20;;;;;;5094530;28;19970;-62
2023/06/21 03:25:37;;;;;;;;;;;25.00;59.20;;;;;;5093499;28;20363;-62
2023/06/21 03:28:03;;;;;;;;;;;25.00;59.10;;;;;;5094524;28;19927;-62
2023/06/21 03:30:28;;;;;;;;;;;25.00;59.10;;;;;;5094017;28;19924;-62
2023/06/21 03:32:54;;;;;;;;;;;25.00;59.20;;;;;;5091946;28;20449;-62
2023/06/21 03:35:19;;;;;;;;;;;25.00;59.20;;;;;;5093501;28;19920;-62
2023/06/21 03:37:46;;;;;;;;;;;25.00;59.20;;;;;;5092108;28;19920;-62
2023/06/21 03:40:13;;;;;;;;;;;25.00;59.00;;;;;;5092125;28;20305;-62
2023/06/21 03:42:39;;;;;;;;;;;25.00;59.20;;;;;;5092643;28;19920;-61
2023/06/21 03:45:05;;;;;;;;;;;25.00;59.20;;;;;;5092517;28;20363;-62
2023/06/21 03:47:30;;;;;;;;;;;24.90;59.20;;;;;;5093529;28;20413;-61
2023/06/21 03:49:57;;;;;;;;;;;24.90;59.10;;;;;;5092772;28;20015;-62
2023/06/21 03:52:23;;;;;;;;;;;25.00;59.20;;;;;;5091986;28;20003;-62
2023/06/21 03:54:49;;;;;;;;;;;25.00;59.20;;;;;;5091969;28;20344;-61
2023/06/21 03:57:14;;;;;;;;;;;24.90;59.10;;;;;;5092186;28;19920;-62
2023/06/21 03:59:40;;;;;;;;;;;24.90;59.20;;;;;;5092068;28;20011;-62
2023/06/21 04:02:05;;;;;;;;;;;24.90;59.20;;;;;;5092873;28;20278;-61
2023/06/21 04:04:31;;;;;;;;;;;24.90;59.00;;;;;;5092469;28;19924;-62
2023/06/21 04:06:56;;;;;;;;;;;24.90;59.10;;;;;;5092102;28;19920;-62
2023/06/21 04:09:22;;;;;;;;;;;24.90;59.10;;;;;;5092694;28;19976;-61
2023/06/21 04:11:47;;;;;;;;;;;24.90;59.10;;;;;;5092595;28;19920;-62
2023/06/21 04:14:15;;;;;;;;;;;24.90;59.10;;;;;;5091244;28;20353;-62
2023/06/21 04:16:40;;;;;;;;;;;24.90;59.10;;;;;;5091342;28;19920;-62
2023/06/21 04:19:06;;;;;;;;;;;24.90;59.10;;;;;;5091859;28;19927;-62
2023/06/21 04:21:31;;;;;;;;;;;24.90;59.20;;;;;;5092047;28;20294;-62
2023/06/21 04:23:57;;;;;;;;;;;24.90;59.10;;;;;;5092824;28;19927;-61
2023/06/21 04:26:22;;;;;;;;;;;24.90;59.10;;;;;;5092184;28;19920;-61
2023/06/21 04:28:49;;;;;;;;;;;24.90;59.10;;;;;;5093083;28;19927;-62
2023/06/21 04:31:15;;;;;;;;;;;24.80;59.00;;;;;;5091709;28;19973;-62
2023/06/21 04:33:40;;;;;;;;;;;24.90;59.10;;;;;;5092589;28;19927;-62
2023/06/21 04:36:06;;;;;;;;;;;24.80;59.10;;;;;;5091500;28;19981;-61
2023/06/21 04:38:33;;;;;;;;;;;24.80;59.10;;;;;;5091698;28;19927;-62
2023/06/21 04:40:58;;;;;;;;;;;24.90;59.10;;;;;;5093030;28;20367;-62
2023/06/21 04:43:25;;;;;;;;;;;24.90;59.20;;;;;;5092955;28;19926;-61
2023/06/21 04:45:50;;;;;;;;;;;24.80;59.10;;;;;;5091657;28;20022;-62
2023/06/21 04:48:16;;;;;;;;;;;24.80;59.00;;;;;;5092028;28;20018;-62
2023/06/21 04:50:46;;;;;;;;;;;24.80;59.10;;;;;;5092733;28;20400;-62
2023/06/21 04:53:12;;;;;;;;;;;24.80;59.10;;;;;;5090880;28;19954;-61
2023/06/21 04:55:42;;;;;;;;;;;24.80;59.10;;;;;;5092000;28;19920;-61
2023/06/21 04:58:08;;;;;;;;;;;24.80;59.10;;;;;;5091091;28;19963;-61
2023/06/21 05:00:35;;;;;;;;;;;24.80;59.10;;;;;;5092421;28;20010;-62
2023/06/21 05:03:00;;;;;;;;;;;24.80;59.10;;;;;;5092828;28;19920;-62
2023/06/21 05:05:26;;;;;;;;;;;24.80;59.10;;;;;;5092433;28;19946;-62
2023/06/21 05:07:51;;;;;;;;;;;24.80;59.10;;;;;;5091369;28;19924;-62
2023/06/21 05:10:17;;;;;;;;;;;24.80;59.10;;;;;;5091269;28;19985;-62
2023/06/21 05:12:42;;;;;;;;;;;24.80;59.10;;;;;;5092069;28;19924;-62
2023/06/21 05:15:08;;;;;;;;;;;24.80;59.10;;;;;;5091647;28;20287;-62
2023/06/21 05:17:34;;;;;;;;;;;24.80;59.10;;;;;;5091183;28;19955;-62
2023/06/21 05:20:00;;;;;;;;;;;24.80;59.20;;;;;;5091041;28;20014;-61
2023/06/21 05:22:26;;;;;;;;;;;24.80;59.10;;;;;;5091385;28;19924;-62
2023/06/21 05:24:52;;;;;;;;;;;24.70;59.10;;;;;;5091078;28;20405;-62
2023/06/21 05:27:18;;;;;;;;;;;24.70;59.10;;;;;;5090329;28;19927;-60
2023/06/21 05:29:43;;;;;;;;;;;24.70;59.10;;;;;;5091391;28;19978;-60
2023/06/21 05:32:09;;;;;;;;;;;24.70;60.50;;;;;;5087551;28;20379;-61
2023/06/21 05:34:35;;;;;;;;;;;24.80;61.40;;;;;;5088776;28;19920;-61
2023/06/21 05:37:00;;;;;;;;;;;24.70;61.90;;;;;;5087568;28;19977;-61
2023/06/21 05:39:25;;;;;;;;;;;24.70;63.10;;;;;;5082279;28;19963;-65
2023/06/21 05:41:51;;;;;;;;;;;24.70;63.30;;;;;;5100920;28;19924;-65
2023/06/21 05:44:16;;;;;;;;;;;24.60;63.90;;;;;;5083500;28;19920;-64
2023/06/21 05:46:42;;;;;;;;;;;24.50;64.40;;;;;;5085426;28;19920;-62
2023/06/21 05:49:07;;;;;;;;;;;24.60;64.10;;;;;;5083373;28;19924;-64
2023/06/21 05:51:33;;;;;;;;;;;24.50;64.70;;;;;;5082811;28;19920;-65
2023/06/21 05:53:58;;;;;;;;;;;24.50;65.30;;;;;;5079957;28;19927;-63
2023/06/21 05:56:26;;;;;;;;;;;24.50;65.30;;;;;;5081831;28;19927;-62
2023/06/21 05:58:52;;;;;;;;;;;24.40;65.60;;;;;;5083108;28;19990;-63
2023/06/21 06:01:18;;;;;;;;;;;24.40;65.80;;;;;;5083087;28;20581;-63
2023/06/21 06:03:43;;;;;;;;;;;24.40;66.20;;;;;;5080684;28;20466;-62
2023/06/21 06:06:08;;;;;;;;;;;24.30;66.30;;;;;;5102406;28;19935;-63
2023/06/21 06:08:34;;;;;;;;;;;24.30;66.40;;;;;;5054758;28;19920;-59
2023/06/21 06:11:00;;;;;;;;;;;24.30;66.90;;;;;;5066058;28;19928;-60
2023/06/21 06:13:25;;;;;;;;;;;24.30;66.10;;;;;;5066000;28;20005;-60
2023/06/21 06:15:51;;;;;;;;;;;24.30;66.70;;;;;;5067701;28;19924;-60
2023/06/21 06:18:16;;;;;;;;;;;24.30;67.20;;;;;;5072435;28;19919;-60
2023/06/21 06:20:43;;;;;;;;;;;24.30;67.30;;;;;;5072881;28;20119;-60
2023/06/21 06:23:10;;;;;;;;;;;24.30;66.90;;;;;;5075337;28;20368;-60
2023/06/21 06:25:35;;;;;;;;;;;24.20;67.20;;;;;;5071851;28;20389;-60
2023/06/21 06:28:01;;;;;;;;;;;24.20;67.20;;;;;;5076407;28;20191;-60
2023/06/21 06:30:26;;;;;;;;;;;24.20;67.50;;;;;;5071622;28;19932;-60
2023/06/21 06:32:52;;;;;;;;;;;24.10;67.10;;;;;;5068100;28;20426;-60
2023/06/21 06:35:17;;;;;;;;;;;24.10;67.00;;;;;;5101939;27;19969;-59
2023/06/21 06:37:43;;;;;;;;;;;24.20;67.10;;;;;;5075114;28;20002;-61
2023/06/21 06:40:08;;;;;;;;;;;24.10;67.70;;;;;;5074502;28;20026;-60
2023/06/21 06:42:34;;;;;;;;;;;24.10;68.30;;;;;;5075373;28;20378;-61
2023/06/21 06:44:59;;;;;;;;;;;24.10;67.10;;;;;;5074508;28;19986;-60
2023/06/21 06:47:28;;;;;;;;;;;24.10;67.30;;;;;;5076020;28;19920;-59
2023/06/21 06:49:53;;;;;;;;;;;24.10;67.00;;;;;;5073688;28;19928;-61
2023/06/21 06:52:19;;;;;;;;;;;24.10;66.50;;;;;;5074922;28;20441;-61
2023/06/21 06:54:44;;;;;;;;;;;24.00;66.80;;;;;;5079401;28;19985;-60
2023/06/21 06:57:10;;;;;;;;;;;24.00;67.30;;;;;;5073608;28;19924;-59
2023/06/21 06:59:35;;;;;;;;;;;24.00;67.50;;;;;;5075334;28;20358;-60
2023/06/21 07:02:01;;;;;;;;;;;24.00;67.00;;;;;;5071166;28;20244;-60
2023/06/21 07:04:28;;;;;;;;;;;24.00;66.80;;;;;;5071474;28;19954;-60
2023/06/21 07:06:54;;;;;;;;;;;24.00;67.20;;;;;;5073728;28;19928;-61
2023/06/21 07:09:19;;;;;;;;;;;24.00;67.20;;;;;;5076760;28;19925;-61
2023/06/21 07:11:45;;;;;;;;;;;24.00;67.30;;;;;;5075176;28;19950;-61
2023/06/21 07:14:10;;;;;;;;;;;24.00;67.10;;;;;;5078837;28;20147;-62
2023/06/21 07:16:40;;;;;;;;;;;24.00;66.90;;;;;;5073978;28;19931;-62
2023/06/21 07:19:05;;;;;;;;;;;23.90;67.30;;;;;;5078404;28;20232;-61
2023/06/21 07:21:31;;;;;;;;;;;23.90;67.10;;;;;;5072031;28;20310;-61
2023/06/21 07:23:56;;;;;;;;;;;23.90;66.80;;;;;;5072186;28;19931;-61
2023/06/21 07:26:21;;;;;;;;;;;23.90;67.00;;;;;;5073961;28;20199;-60
2023/06/21 07:28:47;;;;;;;;;;;24.00;66.70;;;;;;5072685;28;19924;-60
2023/06/21 07:31:12;;;;;;;;;;;23.90;66.60;;;;;;5074925;28;19929;-60
2023/06/21 07:33:38;;;;;;;;;;;23.90;66.50;;;;;;5076153;28;19928;-60
2023/06/21 07:36:04;;;;;;;;;;;23.90;66.20;;;;;;5072001;28;19940;-60
2023/06/21 07:38:29;;;;;;;;;;;23.90;66.20;;;;;;5067631;28;19928;-60
2023/06/21 07:40:55;;;;;;;;;;;24.00;66.30;;;;;;5073606;28;19932;-61
2023/06/21 07:43:20;;;;;;;;;;;23.90;66.50;;;;;;5074125;28;20323;-61
2023/06/21 07:45:46;;;;;;;;;;;24.00;66.60;;;;;;5070559;28;20115;-61
2023/06/21 07:48:11;;;;;;;;;;;24.00;66.70;;;;;;5073174;28;20323;-59
2023/06/21 07:50:37;;;;;;;;;;;24.00;66.30;;;;;;5074452;28;19978;-59
2023/06/21 07:53:03;;;;;;;;;;;24.00;66.50;;;;;;5073415;28;19924;-60
2023/06/21 07:55:29;;;;;;;;;;;24.00;66.10;;;;;;5074992;28;20413;-60
2023/06/21 07:57:54;;;;;;;;;;;24.10;66.20;;;;;;5074665;28;20323;-60
2023/06/21 08:00:20;;;;;;;;;;;24.10;66.30;;;;;;5075204;28;19924;-61
2023/06/21 08:02:46;;;;;;;;;;;24.10;66.30;;;;;;5072859;28;19931;-60
2023/06/21 08:05:13;;;;;;;;;;;24.00;66.20;;;;;;5074371;28;19951;-61
2023/06/21 08:07:38;;;;;;;;;;;24.10;66.00;;;;;;5074238;28;20410;-61
2023/06/21 08:10:04;;;;;;;;;;;24.10;66.20;;;;;;5073638;28;19924;-65
2023/06/21 08:12:29;;;;;;;;;;;24.10;65.50;;;;;;5072650;28;19928;-65
2023/06/21 08:14:55;;;;;;;;;;;24.10;65.60;;;;;;5071715;28;20359;-62
2023/06/21 08:17:20;;;;;;;;;;;24.10;65.70;;;;;;5073686;28;20762;-64
2023/06/21 08:19:46;;;;;;;;;;;24.10;65.70;;;;;;5073948;28;19928;-64
2023/06/21 08:22:11;;;;;;;;;;;24.10;65.40;;;;;;5069190;28;19932;-64
2023/06/21 08:24:37;;;;;;;;;;;24.10;65.30;;;;;;5075848;28;19924;-64
2023/06/21 08:27:02;;;;;;;;;;;24.00;65.10;;;;;;5069476;28;19928;-64
2023/06/21 08:29:28;;;;;;;;;;;24.10;65.60;;;;;;5070938;28;19976;-64
2023/06/21 08:31:53;;;;;;;;;;;24.10;65.10;;;;;;5072634;28;19924;-64
2023/06/21 08:34:18;;;;;;;;;;;24.10;65.00;;;;;;5064007;28;20383;-65
2023/06/21 08:36:47;;;;;;;;;;;24.10;64.70;;;;;;5065673;28;19924;-64
2023/06/21 08:39:12;;;;;;;;;;;24.00;64.90;;;;;;5070554;28;20402;-63
2023/06/21 08:41:38;;;;;;;;;;;24.10;64.90;;;;;;5070645;28;19924;-62
2023/06/21 08:44:04;;;;;;;;;;;24.10;65.20;;;;;;5068620;28;20416;-62
2023/06/21 08:46:32;;;;;;;;;;;24.00;64.70;;;;;;5067585;28;19960;-63
2023/06/21 08:49:00;;;;;;;;;;;24.10;63.90;;;;;;5067282;28;19924;-65
2023/06/21 08:51:26;;;;;;;;;;;24.10;64.10;;;;;;5075172;28;20398;-64
2023/06/21 08:53:57;;;;;;;;;;;24.10;64.20;;;;;;5070197;28;19940;-64
2023/06/21 08:56:23;;;;;;;;;;;24.10;64.40;;;;;;5064142;28;19924;-64
2023/06/21 08:58:51;;;;;;;;;;;24.10;63.90;;;;;;5071115;28;20287;-63
2023/06/21 09:01:18;;;;;;;;;;;24.10;63.80;;;;;;5070916;28;19929;-66
2023/06/21 09:03:47;;;;;;;;;;;24.10;64.50;;;;;;5068758;28;19951;-61
2023/06/21 09:06:15;;;;;;;;;;;24.10;63.60;;;;;;5070177;28;19977;-60
2023/06/21 09:08:41;;;;;;;;;;;24.20;63.60;;;;;;5070877;28;21803;-60
2023/06/21 09:11:07;;;;;;;;;;;24.20;63.40;;;;;;5056257;28;19928;-61
2023/06/21 09:13:34;;;;;;;;;;;24.20;63.30;;;;;;5059263;28;19925;-60
2023/06/21 09:16:01;;;;;;;;;;;24.20;63.40;;;;;;5070097;28;20026;-61
2023/06/21 09:18:35;;;;;;;;;;;24.30;63.60;;;;;;5061722;28;20042;-60
2023/06/21 09:21:01;;;;;;;;;;;24.30;63.50;;;;;;5067675;28;19974;-61
2023/06/21 09:23:27;;;;;;;;;;;24.30;63.30;;;;;;5070558;28;19977;-62
2023/06/21 09:25:52;;;;;;;;;;;24.30;62.40;;;;;;5070212;28;19928;-62
2023/06/21 09:28:18;;;;;;;;;;;24.40;62.40;;;;;;5066019;28;19923;-62
2023/06/21 09:30:44;;;;;;;;;;;24.40;62.50;;;;;;5066835;28;19928;-60
2023/06/21 09:33:10;;;;;;;;;;;24.40;61.90;;;;;;5065215;28;20345;-61
2023/06/21 09:35:38;;;;;;;;;;;24.40;61.90;;;;;;5067360;28;19932;-61
2023/06/21 09:38:19;;;;;;;;;;;24.40;62.30;;;;;;5073939;28;19924;-60
2023/06/21 09:40:44;;;;;;;;;;;24.40;62.30;;;;;;5067222;28;20284;-61
2023/06/21 09:43:10;;;;;;;;;;;24.50;62.30;;;;;;5099419;28;19989;-61
2023/06/21 09:45:35;;;;;;;;;;;24.50;62.20;;;;;;5066212;28;19959;-63
2023/06/21 09:48:01;;;;;;;;;;;24.50;62.30;;;;;;5065252;28;19935;-62
2023/06/21 09:50:27;;;;;;;;;;;24.50;62.30;;;;;;5066392;28;20216;-62
2023/06/21 09:52:52;;;;;;;;;;;24.50;62.50;;;;;;5072290;28;19927;-63
2023/06/21 09:55:18;;;;;;;;;;;24.60;62.30;;;;;;5066633;28;20041;-61
2023/06/21 09:57:43;;;;;;;;;;;24.50;62.30;;;;;;5064827;28;19932;-60
2023/06/21 10:00:10;;;;;;;;;;;24.50;61.90;;;;;;5070122;28;19959;-61
2023/06/21 10:02:39;;;;;;;;;;;24.50;61.80;;;;;;5077495;28;20403;-62
2023/06/21 10:05:05;;;;;;;;;;;24.60;61.90;;;;;;5059332;28;20007;-62
2023/06/21 10:07:31;;;;;;;;;;;24.60;61.50;;;;;;5066946;28;19966;-62
2023/06/21 10:10:04;;;;;;;;;;;24.60;61.60;;;;;;5074676;28;20019;-60
2023/06/21 10:12:30;;;;;;;;;;;24.60;61.80;;;;;;5073443;28;19970;-61
2023/06/21 10:14:58;;;;;;;;;;;24.70;62.00;;;;;;5071298;28;20371;-63
2023/06/21 10:17:23;;;;;;;;;;;24.70;61.70;;;;;;5074420;28;19986;-63
2023/06/21 10:19:49;;;;;;;;;;;24.70;61.60;;;;;;5070592;28;20368;-61
2023/06/21 10:22:17;;;;;;;;;;;24.60;61.00;;;;;;5067361;28;19927;-61
2023/06/21 10:24:47;;;;;;;;;;;24.60;61.10;;;;;;5064558;28;19924;-61
2023/06/21 10:27:12;;;;;;;;;;;24.70;61.00;;;;;;5082056;28;19981;-60
2023/06/21 10:29:41;;;;;;;;;;;24.70;60.90;;;;;;5097143;27;20632;-59
2023/06/21 10:32:07;;;;;;;;;;;24.70;60.90;;;;;;5067320;28;19946;-63
2023/06/21 10:34:40;;;;;;;;;;;24.60;61.00;;;;;;5067611;28;20468;-63
2023/06/21 10:37:12;;;;;;;;;;;24.70;61.00;;;;;;5067222;28;20204;-62
2023/06/21 10:39:39;;;;;;;;;;;24.70;60.90;;;;;;5070968;28;19925;-62
2023/06/21 10:42:05;;;;;;;;;;;24.70;60.40;;;;;;5066897;28;19920;-61
2023/06/21 10:44:31;;;;;;;;;;;24.70;60.40;;;;;;5066326;28;20005;-61
2023/06/21 10:46:57;;;;;;;;;;;24.70;61.10;;;;;;5070738;28;19928;-61
2023/06/21 10:49:24;;;;;;;;;;;24.70;60.70;;;;;;5067871;28;20628;-60
2023/06/21 10:51:49;;;;;;;;;;;24.70;60.80;;;;;;5068389;28;19920;-62
2023/06/21 10:54:15;;;;;;;;;;;24.70;60.90;;;;;;5066852;28;20084;-62
2023/06/21 10:56:41;;;;;;;;;;;24.70;61.00;;;;;;5069955;28;19954;-62
2023/06/21 10:59:06;;;;;;;;;;;24.80;60.50;;;;;;5068387;28;20023;-62
2023/06/21 11:01:32;;;;;;;;;;;24.80;60.40;;;;;;5067027;28;20391;-62
2023/06/21 11:03:58;;;;;;;;;;;24.80;60.40;;;;;;5071377;28;19920;-62
2023/06/21 11:06:26;;;;;;;;;;;24.90;60.40;;;;;;5073995;28;19931;-62
2023/06/21 11:08:52;;;;;;;;;;;24.80;60.00;;;;;;5086172;28;19943;-62
2023/06/21 11:11:34;;;;;;;;;;;24.80;60.10;;;;;;5086945;28;20510;-62
2023/06/21 11:14:00;;;;;;;;;;;24.80;59.30;;;;;;5086376;28;19997;-60
2023/06/21 11:16:26;;;;;;;;;;;24.90;60.10;;;;;;5088210;28;20139;-62
2023/06/21 11:18:56;;;;;;;;;;;24.90;60.10;;;;;;5083803;28;19924;-61
2023/06/21 11:21:44;;;;;;;;;;;24.90;60.00;;;;;;5084439;28;19927;-61
2023/06/21 11:24:12;;;;;;;;;;;24.90;59.80;;;;;;5086506;28;19920;-62
2023/06/21 11:26:57;;;;;;;;;;;24.90;59.60;;;;;;5088007;28;20015;-62
2023/06/21 11:29:25;;;;;;;;;;;24.90;59.30;;;;;;5076587;28;20388;-62
2023/06/21 11:32:06;;;;;;;;;;;24.90;59.40;;;;;;5088561;28;20268;-62
2023/06/21 11:34:31;;;;;;;;;;;24.90;59.30;;;;;;5088955;28;19928;-62
2023/06/21 11:36:57;;;;;;;;;;;25.00;60.00;;;;;;5088013;28;20486;-62
2023/06/21 11:39:23;;;;;;;;;;;24.90;59.00;;;;;;5089209;28;19924;-65
2023/06/21 11:44:30;;;;;;;;;;;25.00;59.00;;;;;;5085173;28;19947;-61
2023/06/21 11:47:02;;;;;;;;;;;25.00;58.10;;;;;;5083099;28;19927;-61
2023/06/21 11:49:33;;;;;;;;;;;25.00;58.40;;;;;;5083308;28;20365;-62
2023/06/21 11:52:05;;;;;;;;;;;24.90;58.50;;;;;;5085151;28;20015;-62
2023/06/21 11:54:33;;;;;;;;;;;25.00;58.60;;;;;;5084645;28;19986;-61
2023/06/21 11:56:58;;;;;;;;;;;25.00;58.70;;;;;;5083060;28;19921;-61
2023/06/21 11:59:24;;;;;;;;;;;25.00;58.70;;;;;;5085482;28;19928;-61
2023/06/21 12:01:50;;;;;;;;;;;25.10;59.00;;;;;;5085439;28;20444;-62
2023/06/21 12:04:23;;;;;;;;;;;25.00;58.60;;;;;;5082072;28;19925;-62
2023/06/21 12:06:49;;;;;;;;;;;25.00;58.70;;;;;;5084498;28;20432;-61
2023/06/21 12:09:14;;;;;;;;;;;25.00;58.70;;;;;;5084648;28;19924;-62
2023/06/21 12:11:40;;;;;;;;;;;25.10;58.80;;;;;;5085092;28;20375;-61
2023/06/21 12:14:06;;;;;;;;;;;25.00;58.70;;;;;;5085475;28;19982;-63
2023/06/21 12:16:33;;;;;;;;;;;25.00;58.80;;;;;;5084329;28;19924;-63
2023/06/21 12:18:58;;;;;;;;;;;25.10;58.70;;;;;;5082938;28;20015;-63
2023/06/21 12:21:24;;;;;;;;;;;25.00;58.80;;;;;;5084057;28;20363;-64
2023/06/21 12:23:56;;;;;;;;;;;25.10;58.80;;;;;;5084731;28;20170;-64
2023/06/21 12:26:26;;;;;;;;;;;25.10;58.70;;;;;;5082841;28;20286;-63
2023/06/21 12:28:52;;;;;;;;;;;25.10;58.50;;;;;;5081228;28;19920;-62
2023/06/21 12:31:18;;;;;;;;;;;25.10;58.50;;;;;;5084240;28;19928;-61
2023/06/21 12:33:44;;;;;;;;;;;25.10;58.40;;;;;;5084666;28;19920;-63
2023/06/21 12:38:58;;;;;;;;;;;25.10;58.30;;;;;;5085741;28;19927;-62
2023/06/21 12:41:24;;;;;;;;;;;25.10;58.30;;;;;;5086166;28;20283;-64
2023/06/21 12:43:52;;;;;;;;;;;25.20;58.30;;;;;;5084861;28;19930;-62
2023/06/21 12:46:17;;;;;;;;;;;25.20;58.30;;;;;;5082819;28;19920;-61
2023/06/21 12:48:44;;;;;;;;;;;25.20;58.10;;;;;;5082801;28;19969;-63
2023/06/21 12:51:09;;;;;;;;;;;25.20;58.10;;;;;;5084391;28;20364;-61
2023/06/21 12:53:40;;;;;;;;;;;25.20;57.70;;;;;;5084921;28;19974;-64
2023/06/21 12:56:07;;;;;;;;;;;25.20;57.70;;;;;;5084708;28;19970;-62
2023/06/21 12:58:33;;;;;;;;;;;25.20;57.80;;;;;;5083455;28;20379;-62
2023/06/21 13:00:59;;;;;;;;;;;25.20;57.90;;;;;;5085282;28;19921;-62
2023/06/21 13:03:25;;;;;;;;;;;25.20;57.90;;;;;;5084373;28;19969;-63
2023/06/21 13:05:51;;;;;;;;;;;25.30;57.90;;;;;;5084737;28;20016;-64
2023/06/21 13:08:16;;;;;;;;;;;25.30;57.90;;;;;;5085617;28;19920;-62
2023/06/21 13:10:42;;;;;;;;;;;25.30;58.00;;;;;;5087630;28;19932;-62
2023/06/21 13:13:07;;;;;;;;;;;25.30;57.70;;;;;;5085976;28;19920;-62
2023/06/21 13:15:33;;;;;;;;;;;25.30;57.50;;;;;;5085753;28;19924;-62
2023/06/21 13:17:58;;;;;;;;;;;25.40;57.40;;;;;;5085410;28;19964;-63
2023/06/21 13:20:24;;;;;;;;;;;25.40;57.30;;;;;;5085954;28;19991;-64
2023/06/21 13:22:49;;;;;;;;;;;25.40;57.20;;;;;;5085026;28;20015;-62
2023/06/21 13:25:15;;;;;;;;;;;25.40;57.00;;;;;;5084906;28;19985;-61
2023/06/21 13:27:42;;;;;;;;;;;25.40;57.10;;;;;;5085146;28;19943;-61
2023/06/21 13:30:07;;;;;;;;;;;25.50;57.10;;;;;;5086641;28;19920;-61
2023/06/21 13:32:33;;;;;;;;;;;25.40;57.20;;;;;;5086013;28;20528;-61
2023/06/21 13:34:58;;;;;;;;;;;25.50;57.20;;;;;;5086226;28;19926;-60
2023/06/21 13:37:24;;;;;;;;;;;25.50;57.20;;;;;;5085696;28;19925;-60
2023/06/21 13:39:49;;;;;;;;;;;25.50;57.10;;;;;;5085860;28;19927;-60
2023/06/21 13:42:15;;;;;;;;;;;25.50;56.90;;;;;;5086784;28;19954;-60
2023/06/21 13:44:40;;;;;;;;;;;25.40;56.80;;;;;;5085558;28;19944;-61
2023/06/21 13:47:06;;;;;;;;;;;25.50;56.90;;;;;;5086164;28;19968;-61
2023/06/21 13:49:31;;;;;;;;;;;25.50;57.00;;;;;;5075714;28;19977;-61
2023/06/21 13:51:56;;;;;;;;;;;25.50;57.00;;;;;;5072662;28;20079;-61
2023/06/21 13:54:24;;;;;;;;;;;25.40;56.90;;;;;;5072663;28;20387;-61
2023/06/21 13:56:49;;;;;;;;;;;25.50;57.00;;;;;;5071715;28;19973;-61
2023/06/21 13:59:15;;;;;;;;;;;25.50;57.00;;;;;;5072559;28;20015;-61
2023/06/21 14:01:40;;;;;;;;;;;25.40;56.90;;;;;;5074372;28;20014;-61
2023/06/21 14:04:05;;;;;;;;;;;25.50;57.00;;;;;;5073160;28;19921;-61
2023/06/21 14:06:31;;;;;;;;;;;25.50;57.00;;;;;;5073773;28;19931;-61
2023/06/21 14:08:56;;;;;;;;;;;25.40;57.00;;;;;;5072321;28;19968;-61
2023/06/21 14:11:22;;;;;;;;;;;25.40;57.00;;;;;;5072243;28;19921;-62
2023/06/21 14:13:48;;;;;;;;;;;25.40;57.00;;;;;;5072251;28;19920;-61
2023/06/21 14:16:13;;;;;;;;;;;25.40;57.10;;;;;;5072434;28;19924;-61
2023/06/21 14:18:39;;;;;;;;;;;25.40;57.00;;;;;;5073158;28;19931;-61
2023/06/21 14:21:07;;;;;;;;;;;25.40;57.00;;;;;;5071999;28;19920;-61
2023/06/21 14:23:34;;;;;;;;;;;25.40;57.00;;;;;;5072029;28;19927;-61
2023/06/21 14:26:00;;;;;;;;;;;25.40;57.00;;;;;;5072162;28;20007;-61